sensor_id;sensor_type;location;lat;lon;timestamp;temperature;humidity
22319;DHT22;11327;52.334;9.506;2023-03-05T00:00:24;3.10;99.90
22319;DHT22;11327;52.334;9.506;2023-03-05T00:03:45;3.00;99.90
22319;DHT22;11327;52.334;9.506;2023-03-05T00:07:06;3.00;99.90
22319;DHT22;11327;52.334;9.506;2023-03-05T00:10:28;3.10;99.90
22319;DHT22;11327;52.334;9.506;2023-03-05T00:13:52;3.10;99.90
22319;DHT22;11327;52.334;9.506;2023-03-05T00:17:13;3.10;99.90
22319;DHT22;11327;52.334;9.506;2023-03-05T00:20:34;3.10;99.90
22319;DHT22;11327;52.334;9.506;2023-03-05T00:23:56;3.00;99.90
22319;DHT22;11327;52.334;9.506;2023-03-05T00:27:17;3.10;99.90
22319;DHT22;11327;52.334;9.506;2023-03-05T00:30:38;3.00;99.90
22319;DHT22;11327;52.334;9.506;2023-03-05T00:34:05;3.00;99.90
22319;DHT22;11327;52.334;9.506;2023-03-05T00:37:26;3.00;99.90
22319;DHT22;11327;52.334;9.506;2023-03-05T00:40:49;3.00;99.90
22319;DHT22;11327;52.334;9.506;2023-03-05T00:44:10;3.10;99.90
22319;DHT22;11327;52.334;9.506;2023-03-05T00:47:31;3.10;99.90
22319;DHT22;11327;52.334;9.506;2023-03-05T00:50:52;3.10;99.90
22319;DHT22;11327;52.334;9.506;2023-03-05T00:54:13;3.10;99.90
22319;DHT22;11327;52.334;9.506;2023-03-05T00:57:33;3.10;99.90
22319;DHT22;11327;52.334;9.506;2023-03-05T01:00:58;3.10;99.90
22319;DHT22;11327;52.334;9.506;2023-03-05T01:04:19;3.10;99.90
22319;DHT22;11327;52.334;9.506;2023-03-05T01:07:40;3.10;99.90
22319;DHT22;11327;52.334;9.506;2023-03-05T01:11:02;3.10;99.90
22319;DHT22;11327;52.334;9.506;2023-03-05T01:14:23;3.10;99.90
22319;DHT22;11327;52.334;9.506;2023-03-05T01:17:44;3.10;99.90
22319;DHT22;11327;52.334;9.506;2023-03-05T01:21:05;3.10;99.90
22319;DHT22;11327;52.334;9.506;2023-03-05T01:24:26;3.10;99.90
22319;DHT22;11327;52.334;9.506;2023-03-05T01:27:47;3.00;99.90
22319;DHT22;11327;52.334;9.506;2023-03-05T01:31:09;3.00;99.90
22319;DHT22;11327;52.334;9.506;2023-03-05T01:34:30;3.10;99.90
22319;DHT22;11327;52.334;9.506;2023-03-05T01:37:51;3.00;99.90
22319;DHT22;11327;52.334;9.506;2023-03-05T01:41:14;3.00;99.90
22319;DHT22;11327;52.334;9.506;2023-03-05T01:44:35;3.00;99.90
22319;DHT22;11327;52.334;9.506;2023-03-05T01:47:56;3.00;99.90
22319;DHT22;11327;52.334;9.506;2023-03-05T01:51:18;3.00;99.90
22319;DHT22;11327;52.334;9.506;2023-03-05T01:54:52;3.00;99.90
22319;DHT22;11327;52.334;9.506;2023-03-05T01:58:13;3.00;99.90
22319;DHT22;11327;52.334;9.506;2023-03-05T02:01:37;3.00;99.90
22319;DHT22;11327;52.334;9.506;2023-03-05T02:05:04;3.00;99.90
22319;DHT22;11327;52.334;9.506;2023-03-05T02:08:25;3.00;99.90
22319;DHT22;11327;52.334;9.506;2023-03-05T02:11:46;3.00;99.90
22319;DHT22;11327;52.334;9.506;2023-03-05T02:15:08;2.90;99.90
22319;DHT22;11327;52.334;9.506;2023-03-05T02:18:29;3.00;99.90
22319;DHT22;11327;52.334;9.506;2023-03-05T02:21:50;2.90;99.90
22319;DHT22;11327;52.334;9.506;2023-03-05T02:25:16;2.90;99.90
22319;DHT22;11327;52.334;9.506;2023-03-05T02:28:49;3.00;99.90
22319;DHT22;11327;52.334;9.506;2023-03-05T02:32:12;3.00;99.90
22319;DHT22;11327;52.334;9.506;2023-03-05T02:35:33;3.00;99.90
22319;DHT22;11327;52.334;9.506;2023-03-05T02:38:54;3.00;99.90
22319;DHT22;11327;52.334;9.506;2023-03-05T02:42:16;3.00;99.90
22319;DHT22;11327;52.334;9.506;2023-03-05T02:45:38;3.00;99.90
22319;DHT22;11327;52.334;9.506;2023-03-05T02:48:58;2.90;99.90
22319;DHT22;11327;52.334;9.506;2023-03-05T02:52:20;2.90;99.90
22319;DHT22;11327;52.334;9.506;2023-03-05T02:55:47;2.90;99.90
22319;DHT22;11327;52.334;9.506;2023-03-05T02:59:08;2.90;99.90
22319;DHT22;11327;52.334;9.506;2023-03-05T03:02:29;2.90;99.90
22319;DHT22;11327;52.334;9.506;2023-03-05T03:05:50;2.80;99.90
22319;DHT22;11327;52.334;9.506;2023-03-05T03:09:10;2.80;99.90
22319;DHT22;11327;52.334;9.506;2023-03-05T03:12:37;2.80;99.90
22319;DHT22;11327;52.334;9.506;2023-03-05T03:16:03;2.70;99.90
22319;DHT22;11327;52.334;9.506;2023-03-05T03:19:23;2.80;99.90
22319;DHT22;11327;52.334;9.506;2023-03-05T03:22:45;2.80;99.90
22319;DHT22;11327;52.334;9.506;2023-03-05T03:26:06;2.90;99.90
22319;DHT22;11327;52.334;9.506;2023-03-05T03:29:27;2.90;99.90
22319;DHT22;11327;52.334;9.506;2023-03-05T03:32:50;2.90;99.90
22319;DHT22;11327;52.334;9.506;2023-03-05T03:36:11;2.90;99.90
22319;DHT22;11327;52.334;9.506;2023-03-05T03:39:31;2.90;99.90
22319;DHT22;11327;52.334;9.506;2023-03-05T03:42:53;2.90;99.90
22319;DHT22;11327;52.334;9.506;2023-03-05T03:46:14;2.90;99.90
22319;DHT22;11327;52.334;9.506;2023-03-05T03:49:34;2.90;99.90
22319;DHT22;11327;52.334;9.506;2023-03-05T03:52:55;2.90;99.90
22319;DHT22;11327;52.334;9.506;2023-03-05T03:56:16;3.00;99.90
22319;DHT22;11327;52.334;9.506;2023-03-05T03:59:36;2.90;99.90
22319;DHT22;11327;52.334;9.506;2023-03-05T04:02:57;2.80;99.90
22319;DHT22;11327;52.334;9.506;2023-03-05T04:06:18;2.80;99.90
22319;DHT22;11327;52.334;9.506;2023-03-05T04:09:39;2.90;99.90
22319;DHT22;11327;52.334;9.506;2023-03-05T04:13:00;2.80;99.90
22319;DHT22;11327;52.334;9.506;2023-03-05T04:16:21;2.80;99.90
22319;DHT22;11327;52.334;9.506;2023-03-05T04:19:44;2.80;99.90
22319;DHT22;11327;52.334;9.506;2023-03-05T04:23:04;2.90;99.90
22319;DHT22;11327;52.334;9.506;2023-03-05T04:26:25;2.80;99.90
22319;DHT22;11327;52.334;9.506;2023-03-05T04:29:46;2.90;99.90
22319;DHT22;11327;52.334;9.506;2023-03-05T04:33:07;2.90;99.90
22319;DHT22;11327;52.334;9.506;2023-03-05T04:36:27;2.80;99.90
22319;DHT22;11327;52.334;9.506;2023-03-05T04:39:48;2.90;99.90
22319;DHT22;11327;52.334;9.506;2023-03-05T04:43:09;2.90;99.90
22319;DHT22;11327;52.334;9.506;2023-03-05T04:46:29;2.90;99.90
22319;DHT22;11327;52.334;9.506;2023-03-05T04:49:50;2.90;99.90
22319;DHT22;11327;52.334;9.506;2023-03-05T04:53:11;2.90;99.90
22319;DHT22;11327;52.334;9.506;2023-03-05T04:56:32;2.90;99.90
22319;DHT22;11327;52.334;9.506;2023-03-05T04:59:53;2.90;99.90
22319;DHT22;11327;52.334;9.506;2023-03-05T05:03:14;2.90;99.90
22319;DHT22;11327;52.334;9.506;2023-03-05T05:06:34;2.90;99.90
22319;DHT22;11327;52.334;9.506;2023-03-05T05:09:55;2.90;99.90
22319;DHT22;11327;52.334;9.506;2023-03-05T05:13:16;2.90;99.90
22319;DHT22;11327;52.334;9.506;2023-03-05T05:16:36;2.90;99.90
22319;DHT22;11327;52.334;9.506;2023-03-05T05:19:58;2.90;99.90
22319;DHT22;11327;52.334;9.506;2023-03-05T05:23:19;2.90;99.90
22319;DHT22;11327;52.334;9.506;2023-03-05T05:26:40;2.80;99.90
22319;DHT22;11327;52.334;9.506;2023-03-05T05:30:01;2.80;99.90
22319;DHT22;11327;52.334;9.506;2023-03-05T05:33:22;2.80;99.90
22319;DHT22;11327;52.334;9.506;2023-03-05T05:36:43;2.80;99.90
22319;DHT22;11327;52.334;9.506;2023-03-05T05:40:04;2.80;99.90
22319;DHT22;11327;52.334;9.506;2023-03-05T05:43:25;2.70;99.90
22319;DHT22;11327;52.334;9.506;2023-03-05T05:46:46;2.80;99.90
22319;DHT22;11327;52.334;9.506;2023-03-05T05:50:07;2.70;99.90
22319;DHT22;11327;52.334;9.506;2023-03-05T05:53:28;2.80;99.90
22319;DHT22;11327;52.334;9.506;2023-03-05T05:56:49;2.80;99.90
22319;DHT22;11327;52.334;9.506;2023-03-05T06:00:12;2.80;99.90
22319;DHT22;11327;52.334;9.506;2023-03-05T06:03:33;2.80;99.90
22319;DHT22;11327;52.334;9.506;2023-03-05T06:06:53;2.80;99.90
22319;DHT22;11327;52.334;9.506;2023-03-05T06:10:14;2.90;99.90
22319;DHT22;11327;52.334;9.506;2023-03-05T06:13:35;2.80;99.90
22319;DHT22;11327;52.334;9.506;2023-03-05T06:16:56;2.80;99.90
22319;DHT22;11327;52.334;9.506;2023-03-05T06:20:17;2.70;99.90
22319;DHT22;11327;52.334;9.506;2023-03-05T06:23:38;2.80;99.90
22319;DHT22;11327;52.334;9.506;2023-03-05T06:26:59;2.70;99.90
22319;DHT22;11327;52.334;9.506;2023-03-05T06:30:20;2.80;99.90
22319;DHT22;11327;52.334;9.506;2023-03-05T06:33:41;2.80;99.90
22319;DHT22;11327;52.334;9.506;2023-03-05T06:37:02;2.80;99.90
22319;DHT22;11327;52.334;9.506;2023-03-05T06:40:22;2.80;99.90
22319;DHT22;11327;52.334;9.506;2023-03-05T06:43:45;2.80;99.90
22319;DHT22;11327;52.334;9.506;2023-03-05T06:47:07;2.90;99.90
22319;DHT22;11327;52.334;9.506;2023-03-05T06:50:29;2.90;99.90
22319;DHT22;11327;52.334;9.506;2023-03-05T06:53:53;2.90;99.90
22319;DHT22;11327;52.334;9.506;2023-03-05T06:57:14;2.90;99.90
22319;DHT22;11327;52.334;9.506;2023-03-05T07:00:35;2.90;99.90
22319;DHT22;11327;52.334;9.506;2023-03-05T07:03:55;2.90;99.90
22319;DHT22;11327;52.334;9.506;2023-03-05T07:07:19;2.90;99.90
22319;DHT22;11327;52.334;9.506;2023-03-05T07:10:41;2.90;99.90
22319;DHT22;11327;52.334;9.506;2023-03-05T07:14:02;2.90;99.90
22319;DHT22;11327;52.334;9.506;2023-03-05T07:17:23;2.90;99.90
22319;DHT22;11327;52.334;9.506;2023-03-05T07:20:44;3.00;99.90
22319;DHT22;11327;52.334;9.506;2023-03-05T07:24:05;3.00;99.90
22319;DHT22;11327;52.334;9.506;2023-03-05T07:27:26;3.00;99.90
22319;DHT22;11327;52.334;9.506;2023-03-05T07:30:57;3.00;99.90
22319;DHT22;11327;52.334;9.506;2023-03-05T07:34:19;3.00;99.90
22319;DHT22;11327;52.334;9.506;2023-03-05T07:37:40;3.00;99.90
22319;DHT22;11327;52.334;9.506;2023-03-05T07:41:06;3.00;99.90
22319;DHT22;11327;52.334;9.506;2023-03-05T07:44:27;3.00;99.90
22319;DHT22;11327;52.334;9.506;2023-03-05T07:47:48;3.00;99.90
22319;DHT22;11327;52.334;9.506;2023-03-05T07:51:15;3.10;99.90
22319;DHT22;11327;52.334;9.506;2023-03-05T07:54:39;3.10;99.90
22319;DHT22;11327;52.334;9.506;2023-03-05T07:58:00;3.10;99.90
22319;DHT22;11327;52.334;9.506;2023-03-05T08:01:21;3.20;99.90
22319;DHT22;11327;52.334;9.506;2023-03-05T08:04:42;3.20;99.90
22319;DHT22;11327;52.334;9.506;2023-03-05T08:08:02;3.20;99.90
22319;DHT22;11327;52.334;9.506;2023-03-05T08:11:23;3.30;99.90
22319;DHT22;11327;52.334;9.506;2023-03-05T08:14:44;3.30;99.90
22319;DHT22;11327;52.334;9.506;2023-03-05T08:18:05;3.40;99.90
22319;DHT22;11327;52.334;9.506;2023-03-05T08:21:31;3.40;99.90
22319;DHT22;11327;52.334;9.506;2023-03-05T08:24:54;3.40;99.90
22319;DHT22;11327;52.334;9.506;2023-03-05T08:28:15;3.50;99.90
22319;DHT22;11327;52.334;9.506;2023-03-05T08:31:38;3.50;99.90
22319;DHT22;11327;52.334;9.506;2023-03-05T08:34:59;3.50;99.90
22319;DHT22;11327;52.334;9.506;2023-03-05T08:38:21;3.50;99.90
22319;DHT22;11327;52.334;9.506;2023-03-05T08:41:41;3.50;99.90
22319;DHT22;11327;52.334;9.506;2023-03-05T08:45:02;3.60;99.90
22319;DHT22;11327;52.334;9.506;2023-03-05T08:48:23;3.60;99.90
22319;DHT22;11327;52.334;9.506;2023-03-05T08:51:44;3.60;99.90
22319;DHT22;11327;52.334;9.506;2023-03-05T08:55:05;3.70;99.90
22319;DHT22;11327;52.334;9.506;2023-03-05T08:58:26;3.70;99.90
22319;DHT22;11327;52.334;9.506;2023-03-05T09:01:46;3.80;99.90
22319;DHT22;11327;52.334;9.506;2023-03-05T09:05:08;3.80;99.90
22319;DHT22;11327;52.334;9.506;2023-03-05T09:08:29;3.80;99.90
22319;DHT22;11327;52.334;9.506;2023-03-05T09:11:50;3.80;99.90
22319;DHT22;11327;52.334;9.506;2023-03-05T09:15:11;3.80;99.90
22319;DHT22;11327;52.334;9.506;2023-03-05T09:18:32;3.70;99.90
22319;DHT22;11327;52.334;9.506;2023-03-05T09:21:55;3.90;99.90
22319;DHT22;11327;52.334;9.506;2023-03-05T09:25:16;3.90;99.90
22319;DHT22;11327;52.334;9.506;2023-03-05T09:28:37;4.00;99.90
22319;DHT22;11327;52.334;9.506;2023-03-05T09:31:58;4.10;99.90
22319;DHT22;11327;52.334;9.506;2023-03-05T09:35:19;4.10;99.90
22319;DHT22;11327;52.334;9.506;2023-03-05T09:38:39;4.10;99.90
22319;DHT22;11327;52.334;9.506;2023-03-05T09:45:43;3.90;99.90
22319;DHT22;11327;52.334;9.506;2023-03-05T09:49:13;3.90;99.90
22319;DHT22;11327;52.334;9.506;2023-03-05T09:52:42;3.80;99.90
22319;DHT22;11327;52.334;9.506;2023-03-05T09:56:15;3.80;99.90
22319;DHT22;11327;52.334;9.506;2023-03-05T09:59:42;3.70;99.90
22319;DHT22;11327;52.334;9.506;2023-03-05T10:03:05;3.60;99.90
22319;DHT22;11327;52.334;9.506;2023-03-05T10:10:11;3.70;99.90
22319;DHT22;11327;52.334;9.506;2023-03-05T10:13:38;3.90;99.90
22319;DHT22;11327;52.334;9.506;2023-03-05T10:20:50;4.40;99.90
22319;DHT22;11327;52.334;9.506;2023-03-05T10:24:26;4.50;99.90
22319;DHT22;11327;52.334;9.506;2023-03-05T10:27:59;4.60;99.90
22319;DHT22;11327;52.334;9.506;2023-03-05T10:31:26;4.70;99.90
22319;DHT22;11327;52.334;9.506;2023-03-05T10:42:27;4.70;99.90
22319;DHT22;11327;52.334;9.506;2023-03-05T10:45:52;4.70;99.90
22319;DHT22;11327;52.334;9.506;2023-03-05T10:49:31;4.70;99.90
22319;DHT22;11327;52.334;9.506;2023-03-05T10:53:02;4.70;99.90
22319;DHT22;11327;52.334;9.506;2023-03-05T10:56:18;4.60;99.90
22319;DHT22;11327;52.334;9.506;2023-03-05T11:00:00;4.70;99.90
22319;DHT22;11327;52.334;9.506;2023-03-05T11:03:20;4.80;99.90
22319;DHT22;11327;52.334;9.506;2023-03-05T11:06:43;4.70;99.90
22319;DHT22;11327;52.334;9.506;2023-03-05T11:10:16;4.60;99.90
22319;DHT22;11327;52.334;9.506;2023-03-05T11:17:32;4.10;99.90
22319;DHT22;11327;52.334;9.506;2023-03-05T11:21:00;3.90;99.90
22319;DHT22;11327;52.334;9.506;2023-03-05T11:24:18;3.90;99.90
22319;DHT22;11327;52.334;9.506;2023-03-05T11:34:37;4.80;99.90
22319;DHT22;11327;52.334;9.506;2023-03-05T11:38:00;5.30;99.90
22319;DHT22;11327;52.334;9.506;2023-03-05T11:41:31;5.60;99.90
22319;DHT22;11327;52.334;9.506;2023-03-05T11:44:53;5.80;99.90
22319;DHT22;11327;52.334;9.506;2023-03-05T11:48:27;5.80;99.90
22319;DHT22;11327;52.334;9.506;2023-03-05T11:51:58;5.70;99.90
22319;DHT22;11327;52.334;9.506;2023-03-05T11:55:44;5.40;99.90
22319;DHT22;11327;52.334;9.506;2023-03-05T12:02:39;5.40;99.90
22319;DHT22;11327;52.334;9.506;2023-03-05T12:09:50;5.40;99.90
22319;DHT22;11327;52.334;9.506;2023-03-05T12:13:14;5.30;99.90
22319;DHT22;11327;52.334;9.506;2023-03-05T12:16:46;5.30;99.90
22319;DHT22;11327;52.334;9.506;2023-03-05T12:20:24;5.30;99.90
22319;DHT22;11327;52.334;9.506;2023-03-05T12:23:48;5.40;99.90
22319;DHT22;11327;52.334;9.506;2023-03-05T12:27:11;5.50;99.90
22319;DHT22;11327;52.334;9.506;2023-03-05T12:33:58;5.30;99.90
22319;DHT22;11327;52.334;9.506;2023-03-05T12:40:43;5.10;99.90
22319;DHT22;11327;52.334;9.506;2023-03-05T12:47:29;5.10;99.90
22319;DHT22;11327;52.334;9.506;2023-03-05T12:50:50;5.20;99.90
22319;DHT22;11327;52.334;9.506;2023-03-05T12:54:36;5.30;99.90
22319;DHT22;11327;52.334;9.506;2023-03-05T13:01:31;5.30;99.90
22319;DHT22;11327;52.334;9.506;2023-03-05T13:04:52;5.50;99.90
22319;DHT22;11327;52.334;9.506;2023-03-05T13:08:26;5.60;99.90
22319;DHT22;11327;52.334;9.506;2023-03-05T13:11:50;5.60;99.90
22319;DHT22;11327;52.334;9.506;2023-03-05T13:15:13;5.60;99.90
22319;DHT22;11327;52.334;9.506;2023-03-05T13:18:36;5.70;99.90
22319;DHT22;11327;52.334;9.506;2023-03-05T13:22:01;5.60;99.90
22319;DHT22;11327;52.334;9.506;2023-03-05T13:25:22;5.60;99.90
22319;DHT22;11327;52.334;9.506;2023-03-05T13:28:44;5.60;99.90
22319;DHT22;11327;52.334;9.506;2023-03-05T13:32:24;5.60;99.90
22319;DHT22;11327;52.334;9.506;2023-03-05T13:35:45;5.60;99.90
22319;DHT22;11327;52.334;9.506;2023-03-05T13:39:06;5.60;99.90
22319;DHT22;11327;52.334;9.506;2023-03-05T13:42:29;5.60;99.90
22319;DHT22;11327;52.334;9.506;2023-03-05T13:45:52;5.70;99.90
22319;DHT22;11327;52.334;9.506;2023-03-05T13:49:23;5.80;99.90
22319;DHT22;11327;52.334;9.506;2023-03-05T13:52:44;5.90;99.90
22319;DHT22;11327;52.334;9.506;2023-03-05T13:56:11;5.80;99.90
22319;DHT22;11327;52.334;9.506;2023-03-05T13:59:34;5.70;99.90
22319;DHT22;11327;52.334;9.506;2023-03-05T14:03:06;5.70;99.90
22319;DHT22;11327;52.334;9.506;2023-03-05T14:06:26;5.60;99.90
22319;DHT22;11327;52.334;9.506;2023-03-05T14:09:48;5.70;99.90
22319;DHT22;11327;52.334;9.506;2023-03-05T14:13:16;5.60;99.90
22319;DHT22;11327;52.334;9.506;2023-03-05T14:16:35;5.70;99.90
22319;DHT22;11327;52.334;9.506;2023-03-05T14:23:36;5.90;99.90
22319;DHT22;11327;52.334;9.506;2023-03-05T14:27:00;6.20;99.90
22319;DHT22;11327;52.334;9.506;2023-03-05T14:30:24;6.40;99.90
22319;DHT22;11327;52.334;9.506;2023-03-05T14:33:45;6.50;99.90
22319;DHT22;11327;52.334;9.506;2023-03-05T14:37:23;6.50;99.90
22319;DHT22;11327;52.334;9.506;2023-03-05T14:40:44;6.60;99.90
22319;DHT22;11327;52.334;9.506;2023-03-05T14:44:13;6.60;99.90
22319;DHT22;11327;52.334;9.506;2023-03-05T14:47:34;6.60;99.90
22319;DHT22;11327;52.334;9.506;2023-03-05T14:50:55;6.60;99.90
22319;DHT22;11327;52.334;9.506;2023-03-05T14:54:21;6.60;99.90
22319;DHT22;11327;52.334;9.506;2023-03-05T14:57:43;6.60;99.90
22319;DHT22;11327;52.334;9.506;2023-03-05T15:01:04;6.50;99.90
22319;DHT22;11327;52.334;9.506;2023-03-05T15:04:25;6.40;99.90
22319;DHT22;11327;52.334;9.506;2023-03-05T15:07:46;6.40;99.90
22319;DHT22;11327;52.334;9.506;2023-03-05T15:11:07;6.30;99.90
22319;DHT22;11327;52.334;9.506;2023-03-05T15:14:28;6.20;99.90
22319;DHT22;11327;52.334;9.506;2023-03-05T15:17:49;6.10;99.90
22319;DHT22;11327;52.334;9.506;2023-03-05T15:21:12;6.20;99.90
22319;DHT22;11327;52.334;9.506;2023-03-05T15:24:33;6.20;99.90
22319;DHT22;11327;52.334;9.506;2023-03-05T15:27:54;6.10;99.90
22319;DHT22;11327;52.334;9.506;2023-03-05T15:31:15;6.20;99.90
22319;DHT22;11327;52.334;9.506;2023-03-05T15:34:36;6.10;99.90
22319;DHT22;11327;52.334;9.506;2023-03-05T15:37:57;6.10;99.90
22319;DHT22;11327;52.334;9.506;2023-03-05T15:41:18;6.10;99.90
22319;DHT22;11327;52.334;9.506;2023-03-05T15:44:38;6.00;99.90
22319;DHT22;11327;52.334;9.506;2023-03-05T15:47:59;6.00;99.90
22319;DHT22;11327;52.334;9.506;2023-03-05T15:51:20;6.00;99.90
22319;DHT22;11327;52.334;9.506;2023-03-05T15:54:41;6.00;99.90
22319;DHT22;11327;52.334;9.506;2023-03-05T15:58:02;5.90;99.90
22319;DHT22;11327;52.334;9.506;2023-03-05T16:01:23;5.80;99.90
22319;DHT22;11327;52.334;9.506;2023-03-05T16:04:45;5.70;99.90
22319;DHT22;11327;52.334;9.506;2023-03-05T16:08:07;5.70;99.90
22319;DHT22;11327;52.334;9.506;2023-03-05T16:11:31;5.70;99.90
22319;DHT22;11327;52.334;9.506;2023-03-05T16:14:52;5.70;99.90
22319;DHT22;11327;52.334;9.506;2023-03-05T16:18:14;5.60;99.90
22319;DHT22;11327;52.334;9.506;2023-03-05T16:21:35;5.60;99.90
22319;DHT22;11327;52.334;9.506;2023-03-05T16:24:56;5.50;99.90
22319;DHT22;11327;52.334;9.506;2023-03-05T16:28:17;5.50;99.90
22319;DHT22;11327;52.334;9.506;2023-03-05T16:31:38;5.50;99.90
22319;DHT22;11327;52.334;9.506;2023-03-05T16:35:00;5.50;99.90
22319;DHT22;11327;52.334;9.506;2023-03-05T16:38:21;5.50;99.90
22319;DHT22;11327;52.334;9.506;2023-03-05T16:41:42;5.50;99.90
22319;DHT22;11327;52.334;9.506;2023-03-05T16:45:04;5.40;99.90
22319;DHT22;11327;52.334;9.506;2023-03-05T16:48:25;5.40;99.90
22319;DHT22;11327;52.334;9.506;2023-03-05T16:51:47;5.30;99.90
22319;DHT22;11327;52.334;9.506;2023-03-05T16:55:08;5.30;99.90
22319;DHT22;11327;52.334;9.506;2023-03-05T16:58:29;5.30;99.90
22319;DHT22;11327;52.334;9.506;2023-03-05T17:01:50;5.30;99.90
22319;DHT22;11327;52.334;9.506;2023-03-05T17:05:11;5.30;99.90
22319;DHT22;11327;52.334;9.506;2023-03-05T17:08:33;5.20;99.90
22319;DHT22;11327;52.334;9.506;2023-03-05T17:11:54;5.30;99.90
22319;DHT22;11327;52.334;9.506;2023-03-05T17:15:14;5.20;99.90
22319;DHT22;11327;52.334;9.506;2023-03-05T17:18:35;5.20;99.90
22319;DHT22;11327;52.334;9.506;2023-03-05T17:21:56;5.20;99.90
22319;DHT22;11327;52.334;9.506;2023-03-05T17:25:17;5.20;99.90
22319;DHT22;11327;52.334;9.506;2023-03-05T17:28:38;5.20;99.90
22319;DHT22;11327;52.334;9.506;2023-03-05T17:31:59;5.20;99.90
22319;DHT22;11327;52.334;9.506;2023-03-05T17:35:21;5.10;99.90
22319;DHT22;11327;52.334;9.506;2023-03-05T17:38:42;5.00;99.90
22319;DHT22;11327;52.334;9.506;2023-03-05T17:42:03;5.00;99.90
22319;DHT22;11327;52.334;9.506;2023-03-05T17:45:24;5.00;99.90
22319;DHT22;11327;52.334;9.506;2023-03-05T17:48:45;5.10;99.90
22319;DHT22;11327;52.334;9.506;2023-03-05T17:52:06;5.10;99.90
22319;DHT22;11327;52.334;9.506;2023-03-05T17:55:27;5.00;99.90
22319;DHT22;11327;52.334;9.506;2023-03-05T17:58:48;4.90;99.90
22319;DHT22;11327;52.334;9.506;2023-03-05T18:02:10;4.70;99.90
22319;DHT22;11327;52.334;9.506;2023-03-05T18:05:31;4.60;99.90
22319;DHT22;11327;52.334;9.506;2023-03-05T18:08:52;4.60;99.90
22319;DHT22;11327;52.334;9.506;2023-03-05T18:12:12;4.50;99.90
22319;DHT22;11327;52.334;9.506;2023-03-05T18:15:33;4.50;99.90
22319;DHT22;11327;52.334;9.506;2023-03-05T18:18:54;4.50;99.90
22319;DHT22;11327;52.334;9.506;2023-03-05T18:22:15;4.50;99.90
22319;DHT22;11327;52.334;9.506;2023-03-05T18:25:35;4.40;99.90
22319;DHT22;11327;52.334;9.506;2023-03-05T18:28:56;4.40;99.90
22319;DHT22;11327;52.334;9.506;2023-03-05T18:32:17;4.30;99.90
22319;DHT22;11327;52.334;9.506;2023-03-05T18:35:38;4.30;99.90
22319;DHT22;11327;52.334;9.506;2023-03-05T18:38:58;4.20;99.90
22319;DHT22;11327;52.334;9.506;2023-03-05T18:42:19;4.20;99.90
22319;DHT22;11327;52.334;9.506;2023-03-05T18:45:40;4.20;99.90
22319;DHT22;11327;52.334;9.506;2023-03-05T18:49:00;4.20;99.90
22319;DHT22;11327;52.334;9.506;2023-03-05T18:52:21;4.30;99.90
22319;DHT22;11327;52.334;9.506;2023-03-05T18:55:42;4.30;99.90
22319;DHT22;11327;52.334;9.506;2023-03-05T18:59:04;4.30;99.90
22319;DHT22;11327;52.334;9.506;2023-03-05T19:02:25;4.30;99.90
22319;DHT22;11327;52.334;9.506;2023-03-05T19:05:45;4.40;99.90
22319;DHT22;11327;52.334;9.506;2023-03-05T19:16:36;4.40;99.90
22319;DHT22;11327;52.334;9.506;2023-03-05T19:19:58;4.40;99.90
22319;DHT22;11327;52.334;9.506;2023-03-05T19:23:19;4.50;99.90
22319;DHT22;11327;52.334;9.506;2023-03-05T19:26:41;4.40;99.90
22319;DHT22;11327;52.334;9.506;2023-03-05T19:30:03;4.50;99.90
22319;DHT22;11327;52.334;9.506;2023-03-05T19:33:24;4.50;99.90
22319;DHT22;11327;52.334;9.506;2023-03-05T19:36:45;4.50;99.90
22319;DHT22;11327;52.334;9.506;2023-03-05T19:40:07;4.50;99.90
22319;DHT22;11327;52.334;9.506;2023-03-05T19:43:29;4.50;99.90
22319;DHT22;11327;52.334;9.506;2023-03-05T19:46:50;4.40;99.90
22319;DHT22;11327;52.334;9.506;2023-03-05T19:50:13;4.40;99.90
22319;DHT22;11327;52.334;9.506;2023-03-05T19:53:34;4.40;99.90
22319;DHT22;11327;52.334;9.506;2023-03-05T19:56:55;4.40;99.90
22319;DHT22;11327;52.334;9.506;2023-03-05T20:00:16;4.40;99.90
22319;DHT22;11327;52.334;9.506;2023-03-05T20:03:37;4.30;99.90
22319;DHT22;11327;52.334;9.506;2023-03-05T20:06:58;4.30;99.90
22319;DHT22;11327;52.334;9.506;2023-03-05T20:10:19;4.30;99.90
22319;DHT22;11327;52.334;9.506;2023-03-05T20:13:40;4.30;99.90
22319;DHT22;11327;52.334;9.506;2023-03-05T20:17:01;4.20;99.90
22319;DHT22;11327;52.334;9.506;2023-03-05T20:20:22;4.20;99.90
22319;DHT22;11327;52.334;9.506;2023-03-05T20:23:43;4.20;99.90
22319;DHT22;11327;52.334;9.506;2023-03-05T20:27:03;4.20;99.90
22319;DHT22;11327;52.334;9.506;2023-03-05T20:30:24;4.30;99.90
22319;DHT22;11327;52.334;9.506;2023-03-05T20:33:45;4.20;99.90
22319;DHT22;11327;52.334;9.506;2023-03-05T20:37:06;4.20;99.90
22319;DHT22;11327;52.334;9.506;2023-03-05T20:40:26;4.30;99.90
22319;DHT22;11327;52.334;9.506;2023-03-05T20:43:49;4.20;99.90
22319;DHT22;11327;52.334;9.506;2023-03-05T20:50:51;4.20;99.90
22319;DHT22;11327;52.334;9.506;2023-03-05T20:54:12;4.20;99.90
22319;DHT22;11327;52.334;9.506;2023-03-05T20:57:33;4.20;99.90
22319;DHT22;11327;52.334;9.506;2023-03-05T21:00:54;4.20;99.90
22319;DHT22;11327;52.334;9.506;2023-03-05T21:04:14;4.20;99.90
22319;DHT22;11327;52.334;9.506;2023-03-05T21:07:36;4.10;99.90
22319;DHT22;11327;52.334;9.506;2023-03-05T21:10:57;4.20;99.90
22319;DHT22;11327;52.334;9.506;2023-03-05T21:14:18;4.20;99.90
22319;DHT22;11327;52.334;9.506;2023-03-05T21:17:39;4.20;99.90
22319;DHT22;11327;52.334;9.506;2023-03-05T21:21:01;4.20;99.90
22319;DHT22;11327;52.334;9.506;2023-03-05T21:28:13;4.20;99.90
22319;DHT22;11327;52.334;9.506;2023-03-05T21:31:38;4.20;99.90
22319;DHT22;11327;52.334;9.506;2023-03-05T21:34:59;4.10;99.90
22319;DHT22;11327;52.334;9.506;2023-03-05T21:38:20;4.10;99.90
22319;DHT22;11327;52.334;9.506;2023-03-05T21:41:42;4.10;99.90
22319;DHT22;11327;52.334;9.506;2023-03-05T21:45:06;4.10;99.90
22319;DHT22;11327;52.334;9.506;2023-03-05T21:48:28;4.10;99.90
22319;DHT22;11327;52.334;9.506;2023-03-05T21:58:59;4.10;99.90
22319;DHT22;11327;52.334;9.506;2023-03-05T22:02:21;4.00;99.90
22319;DHT22;11327;52.334;9.506;2023-03-05T22:05:42;4.00;99.90
22319;DHT22;11327;52.334;9.506;2023-03-05T22:09:03;4.00;99.90
22319;DHT22;11327;52.334;9.506;2023-03-05T22:12:50;4.00;99.90
22319;DHT22;11327;52.334;9.506;2023-03-05T22:16:11;4.00;99.90
22319;DHT22;11327;52.334;9.506;2023-03-05T22:19:34;4.00;99.90
22319;DHT22;11327;52.334;9.506;2023-03-05T22:22:55;4.10;99.90
22319;DHT22;11327;52.334;9.506;2023-03-05T22:26:15;4.00;99.90
22319;DHT22;11327;52.334;9.506;2023-03-05T22:29:36;4.00;99.90
22319;DHT22;11327;52.334;9.506;2023-03-05T22:32:58;3.90;99.90
22319;DHT22;11327;52.334;9.506;2023-03-05T22:36:19;4.00;99.90
22319;DHT22;11327;52.334;9.506;2023-03-05T22:39:40;3.90;99.90
22319;DHT22;11327;52.334;9.506;2023-03-05T22:43:01;3.90;99.90
22319;DHT22;11327;52.334;9.506;2023-03-05T22:46:24;3.90;99.90
22319;DHT22;11327;52.334;9.506;2023-03-05T22:49:44;3.90;99.90
22319;DHT22;11327;52.334;9.506;2023-03-05T22:53:06;3.80;99.90